sensor_id;sensor_type;location;lat;lon;timestamp;temperature;humidity
68189;DHT22;55008;47.514;19.218;2022-07-06T00:00:37;17.62;89.41
68189;DHT22;55008;47.514;19.218;2022-07-06T00:03:15;17.59;89.54
68189;DHT22;55008;47.514;19.218;2022-07-06T00:05:48;17.62;89.37
68189;DHT22;55008;47.514;19.218;2022-07-06T00:08:17;17.59;89.26
68189;DHT22;55008;47.514;19.218;2022-07-06T00:10:47;17.61;89.53
68189;DHT22;55008;47.514;19.218;2022-07-06T00:13:17;17.53;89.65
68189;DHT22;55008;47.514;19.218;2022-07-06T00:15:47;17.55;89.65
68189;DHT22;55008;47.514;19.218;2022-07-06T00:18:19;17.49;89.95
68189;DHT22;55008;47.514;19.218;2022-07-06T00:20:49;17.43;89.81
68189;DHT22;55008;47.514;19.218;2022-07-06T00:23:20;17.45;89.96
68189;DHT22;55008;47.514;19.218;2022-07-06T00:25:53;17.42;89.80
68189;DHT22;55008;47.514;19.218;2022-07-06T00:28:24;17.39;90.07
68189;DHT22;55008;47.514;19.218;2022-07-06T00:30:59;17.42;90.17
68189;DHT22;55008;47.514;19.218;2022-07-06T00:33:28;17.31;90.08
68189;DHT22;55008;47.514;19.218;2022-07-06T00:36:02;17.28;90.18
68189;DHT22;55008;47.514;19.218;2022-07-06T00:38:32;17.35;89.96
68189;DHT22;55008;47.514;19.218;2022-07-06T00:41:05;17.29;89.84
68189;DHT22;55008;47.514;19.218;2022-07-06T00:43:50;17.27;89.95
68189;DHT22;55008;47.514;19.218;2022-07-06T00:46:19;17.19;90.18
68189;DHT22;55008;47.514;19.218;2022-07-06T00:48:53;17.28;89.96
68189;DHT22;55008;47.514;19.218;2022-07-06T00:51:25;17.24;90.22
68189;DHT22;55008;47.514;19.218;2022-07-06T00:53:59;17.18;90.30
68189;DHT22;55008;47.514;19.218;2022-07-06T00:56:31;17.17;90.19
68189;DHT22;55008;47.514;19.218;2022-07-06T00:59:04;17.07;90.64
68189;DHT22;55008;47.514;19.218;2022-07-06T01:01:33;17.04;90.75
68189;DHT22;55008;47.514;19.218;2022-07-06T01:04:06;17.04;90.71
68189;DHT22;55008;47.514;19.218;2022-07-06T01:06:39;17.07;90.62
68189;DHT22;55008;47.514;19.218;2022-07-06T01:09:12;17.06;90.62
68189;DHT22;55008;47.514;19.218;2022-07-06T01:11:44;17.01;90.91
68189;DHT22;55008;47.514;19.218;2022-07-06T01:14:14;16.95;90.93
68189;DHT22;55008;47.514;19.218;2022-07-06T01:16:44;16.98;90.86
68189;DHT22;55008;47.514;19.218;2022-07-06T01:19:13;16.95;90.90
68189;DHT22;55008;47.514;19.218;2022-07-06T01:21:42;16.98;90.93
68189;DHT22;55008;47.514;19.218;2022-07-06T01:24:13;17.00;90.77
68189;DHT22;55008;47.514;19.218;2022-07-06T01:26:46;17.00;90.70
68189;DHT22;55008;47.514;19.218;2022-07-06T01:29:18;16.98;90.79
68189;DHT22;55008;47.514;19.218;2022-07-06T01:31:48;17.00;90.65
68189;DHT22;55008;47.514;19.218;2022-07-06T01:34:17;16.97;90.74
68189;DHT22;55008;47.514;19.218;2022-07-06T01:36:47;16.98;90.68
68189;DHT22;55008;47.514;19.218;2022-07-06T01:39:16;16.95;90.69
68189;DHT22;55008;47.514;19.218;2022-07-06T01:41:51;16.98;90.60
68189;DHT22;55008;47.514;19.218;2022-07-06T01:44:20;16.97;90.79
68189;DHT22;55008;47.514;19.218;2022-07-06T01:46:50;16.88;91.06
68189;DHT22;55008;47.514;19.218;2022-07-06T01:49:21;16.91;90.96
68189;DHT22;55008;47.514;19.218;2022-07-06T01:51:51;16.87;90.90
68189;DHT22;55008;47.514;19.218;2022-07-06T01:54:22;16.90;91.03
68189;DHT22;55008;47.514;19.218;2022-07-06T01:56:53;16.90;90.92
68189;DHT22;55008;47.514;19.218;2022-07-06T01:59:26;16.90;90.94
68189;DHT22;55008;47.514;19.218;2022-07-06T02:01:59;16.88;90.99
68189;DHT22;55008;47.514;19.218;2022-07-06T02:04:28;16.87;90.87
68189;DHT22;55008;47.514;19.218;2022-07-06T02:07:02;16.91;90.76
68189;DHT22;55008;47.514;19.218;2022-07-06T02:09:31;16.90;90.57
68189;DHT22;55008;47.514;19.218;2022-07-06T02:11:59;16.83;90.95
68189;DHT22;55008;47.514;19.218;2022-07-06T02:14:27;16.84;90.76
68189;DHT22;55008;47.514;19.218;2022-07-06T02:17:01;16.88;90.66
68189;DHT22;55008;47.514;19.218;2022-07-06T02:19:32;16.83;90.75
68189;DHT22;55008;47.514;19.218;2022-07-06T02:22:01;16.80;90.92
68189;DHT22;55008;47.514;19.218;2022-07-06T02:24:30;16.80;90.83
68189;DHT22;55008;47.514;19.218;2022-07-06T02:27:04;16.78;90.94
68189;DHT22;55008;47.514;19.218;2022-07-06T02:29:35;16.78;90.78
68189;DHT22;55008;47.514;19.218;2022-07-06T02:32:06;16.74;90.82
68189;DHT22;55008;47.514;19.218;2022-07-06T02:34:35;16.76;91.01
68189;DHT22;55008;47.514;19.218;2022-07-06T02:37:07;16.73;91.00
68189;DHT22;55008;47.514;19.218;2022-07-06T02:39:42;16.71;91.12
68189;DHT22;55008;47.514;19.218;2022-07-06T02:42:14;16.70;91.17
68189;DHT22;55008;47.514;19.218;2022-07-06T02:44:43;16.77;90.77
68189;DHT22;55008;47.514;19.218;2022-07-06T02:47:15;16.81;90.53
68189;DHT22;55008;47.514;19.218;2022-07-06T02:49:43;16.77;90.59
68189;DHT22;55008;47.514;19.218;2022-07-06T02:52:17;16.76;90.77
68189;DHT22;55008;47.514;19.218;2022-07-06T02:54:47;16.74;90.94
68189;DHT22;55008;47.514;19.218;2022-07-06T02:57:21;16.71;90.85
68189;DHT22;55008;47.514;19.218;2022-07-06T02:59:51;16.70;90.86
68189;DHT22;55008;47.514;19.218;2022-07-06T03:02:20;16.73;90.91
68189;DHT22;55008;47.514;19.218;2022-07-06T03:04:50;16.71;90.85
68189;DHT22;55008;47.514;19.218;2022-07-06T03:07:20;16.69;90.94
68189;DHT22;55008;47.514;19.218;2022-07-06T03:09:52;16.63;91.20
68189;DHT22;55008;47.514;19.218;2022-07-06T03:12:23;16.64;91.22
68189;DHT22;55008;47.514;19.218;2022-07-06T03:14:51;16.57;91.34
68189;DHT22;55008;47.514;19.218;2022-07-06T03:17:26;16.66;91.14
68189;DHT22;55008;47.514;19.218;2022-07-06T03:19:57;16.67;91.17
68189;DHT22;55008;47.514;19.218;2022-07-06T03:22:27;16.77;90.60
68189;DHT22;55008;47.514;19.218;2022-07-06T03:24:56;16.80;90.54
68189;DHT22;55008;47.514;19.218;2022-07-06T03:27:24;16.80;90.30
68189;DHT22;55008;47.514;19.218;2022-07-06T03:29:55;16.88;90.20
68189;DHT22;55008;47.514;19.218;2022-07-06T03:32:29;16.84;90.26
68189;DHT22;55008;47.514;19.218;2022-07-06T03:35:01;16.88;90.31
68189;DHT22;55008;47.514;19.218;2022-07-06T03:37:32;16.90;90.05
68189;DHT22;55008;47.514;19.218;2022-07-06T03:40:04;16.90;90.07
68189;DHT22;55008;47.514;19.218;2022-07-06T03:42:36;16.90;90.11
68189;DHT22;55008;47.514;19.218;2022-07-06T03:45:05;16.97;89.65
68189;DHT22;55008;47.514;19.218;2022-07-06T03:47:36;17.04;89.39
68189;DHT22;55008;47.514;19.218;2022-07-06T03:50:07;17.07;89.14
68189;DHT22;55008;47.514;19.218;2022-07-06T03:52:38;17.10;89.21
68189;DHT22;55008;47.514;19.218;2022-07-06T03:55:11;17.15;88.93
68189;DHT22;55008;47.514;19.218;2022-07-06T03:57:40;17.17;88.64
68189;DHT22;55008;47.514;19.218;2022-07-06T04:00:13;17.25;88.35
68189;DHT22;55008;47.514;19.218;2022-07-06T04:02:41;17.17;88.53
68189;DHT22;55008;47.514;19.218;2022-07-06T04:05:10;17.22;88.48
68189;DHT22;55008;47.514;19.218;2022-07-06T04:07:41;17.22;88.58
68189;DHT22;55008;47.514;19.218;2022-07-06T04:10:13;17.19;88.52
68189;DHT22;55008;47.514;19.218;2022-07-06T04:12:43;17.22;88.52
68189;DHT22;55008;47.514;19.218;2022-07-06T04:15:12;17.22;88.54
68189;DHT22;55008;47.514;19.218;2022-07-06T04:17:41;17.22;88.61
68189;DHT22;55008;47.514;19.218;2022-07-06T04:20:24;17.21;88.70
68189;DHT22;55008;47.514;19.218;2022-07-06T04:22:57;17.17;88.87
68189;DHT22;55008;47.514;19.218;2022-07-06T04:25:25;17.19;88.72
68189;DHT22;55008;47.514;19.218;2022-07-06T04:27:55;17.19;88.78
68189;DHT22;55008;47.514;19.218;2022-07-06T04:30:23;17.29;88.25
68189;DHT22;55008;47.514;19.218;2022-07-06T04:32:53;17.40;88.10
68189;DHT22;55008;47.514;19.218;2022-07-06T04:35:25;17.49;87.58
68189;DHT22;55008;47.514;19.218;2022-07-06T04:37:56;17.65;87.25
68189;DHT22;55008;47.514;19.218;2022-07-06T04:40:25;17.82;86.75
68189;DHT22;55008;47.514;19.218;2022-07-06T04:42:54;17.94;85.84
68189;DHT22;55008;47.514;19.218;2022-07-06T04:45:22;18.04;85.52
68189;DHT22;55008;47.514;19.218;2022-07-06T04:47:54;18.10;85.19
68189;DHT22;55008;47.514;19.218;2022-07-06T04:50:31;18.18;85.34
68189;DHT22;55008;47.514;19.218;2022-07-06T04:53:07;18.20;84.73
68189;DHT22;55008;47.514;19.218;2022-07-06T04:55:37;18.28;84.99
68189;DHT22;55008;47.514;19.218;2022-07-06T04:58:17;18.42;84.72
68189;DHT22;55008;47.514;19.218;2022-07-06T05:00:48;18.45;84.36
68189;DHT22;55008;47.514;19.218;2022-07-06T05:03:17;18.63;84.12
68189;DHT22;55008;47.514;19.218;2022-07-06T05:05:47;18.75;84.01
68189;DHT22;55008;47.514;19.218;2022-07-06T05:08:21;18.82;83.06
68189;DHT22;55008;47.514;19.218;2022-07-06T05:10:51;18.86;82.86
68189;DHT22;55008;47.514;19.218;2022-07-06T05:13:25;18.93;82.68
68189;DHT22;55008;47.514;19.218;2022-07-06T05:16:02;19.03;82.01
68189;DHT22;55008;47.514;19.218;2022-07-06T05:18:34;19.10;81.46
68189;DHT22;55008;47.514;19.218;2022-07-06T05:21:04;19.20;81.84
68189;DHT22;55008;47.514;19.218;2022-07-06T05:23:34;19.37;81.48
68189;DHT22;55008;47.514;19.218;2022-07-06T05:26:05;19.50;80.41
68189;DHT22;55008;47.514;19.218;2022-07-06T05:28:35;19.54;80.41
68189;DHT22;55008;47.514;19.218;2022-07-06T05:31:03;19.72;79.58
68189;DHT22;55008;47.514;19.218;2022-07-06T05:33:32;19.77;79.25
68189;DHT22;55008;47.514;19.218;2022-07-06T05:36:05;19.85;79.02
68189;DHT22;55008;47.514;19.218;2022-07-06T05:38:35;19.93;78.93
68189;DHT22;55008;47.514;19.218;2022-07-06T05:41:04;20.02;77.95
68189;DHT22;55008;47.514;19.218;2022-07-06T05:43:35;20.12;77.03
68189;DHT22;55008;47.514;19.218;2022-07-06T05:46:04;20.25;76.75
68189;DHT22;55008;47.514;19.218;2022-07-06T05:48:37;20.41;76.70
68189;DHT22;55008;47.514;19.218;2022-07-06T05:51:30;20.43;75.27
68189;DHT22;55008;47.514;19.218;2022-07-06T05:54:05;20.46;74.85
68189;DHT22;55008;47.514;19.218;2022-07-06T05:56:38;20.46;75.41
68189;DHT22;55008;47.514;19.218;2022-07-06T05:59:07;20.37;75.33
68189;DHT22;55008;47.514;19.218;2022-07-06T06:01:35;20.50;75.49
68189;DHT22;55008;47.514;19.218;2022-07-06T06:04:06;20.57;75.18
68189;DHT22;55008;47.514;19.218;2022-07-06T06:06:36;20.71;75.44
68189;DHT22;55008;47.514;19.218;2022-07-06T06:09:06;20.82;74.30
68189;DHT22;55008;47.514;19.218;2022-07-06T06:11:36;20.90;74.02
68189;DHT22;55008;47.514;19.218;2022-07-06T06:14:06;20.87;73.57
68189;DHT22;55008;47.514;19.218;2022-07-06T06:16:35;20.92;73.53
68189;DHT22;55008;47.514;19.218;2022-07-06T06:19:04;21.09;73.59
68189;DHT22;55008;47.514;19.218;2022-07-06T06:21:35;21.05;72.67
68189;DHT22;55008;47.514;19.218;2022-07-06T06:24:10;21.15;72.24
68189;DHT22;55008;47.514;19.218;2022-07-06T06:26:41;21.11;72.13
68189;DHT22;55008;47.514;19.218;2022-07-06T06:29:10;21.21;72.62
68189;DHT22;55008;47.514;19.218;2022-07-06T06:31:39;21.09;72.10
68189;DHT22;55008;47.514;19.218;2022-07-06T06:34:14;21.22;71.95
68189;DHT22;55008;47.514;19.218;2022-07-06T06:36:43;21.39;71.45
68189;DHT22;55008;47.514;19.218;2022-07-06T06:39:17;21.43;71.35
68189;DHT22;55008;47.514;19.218;2022-07-06T06:41:49;21.59;71.41
68189;DHT22;55008;47.514;19.218;2022-07-06T06:44:20;21.90;69.82
68189;DHT22;55008;47.514;19.218;2022-07-06T06:46:51;21.94;69.30
68189;DHT22;55008;47.514;19.218;2022-07-06T06:49:20;21.93;68.72
68189;DHT22;55008;47.514;19.218;2022-07-06T06:51:51;21.98;68.11
68189;DHT22;55008;47.514;19.218;2022-07-06T06:54:43;22.11;67.97
68189;DHT22;55008;47.514;19.218;2022-07-06T06:57:14;22.19;67.64
68189;DHT22;55008;47.514;19.218;2022-07-06T06:59:47;22.31;66.62
68189;DHT22;55008;47.514;19.218;2022-07-06T07:02:17;22.25;66.29
68189;DHT22;55008;47.514;19.218;2022-07-06T07:04:48;22.36;65.96
68189;DHT22;55008;47.514;19.218;2022-07-06T07:07:19;22.55;67.01
68189;DHT22;55008;47.514;19.218;2022-07-06T07:09:54;22.82;67.01
68189;DHT22;55008;47.514;19.218;2022-07-06T07:12:27;22.96;65.81
68189;DHT22;55008;47.514;19.218;2022-07-06T07:15:04;22.96;64.60
68189;DHT22;55008;47.514;19.218;2022-07-06T07:17:41;22.75;64.63
68189;DHT22;55008;47.514;19.218;2022-07-06T07:20:12;22.89;65.42
68189;DHT22;55008;47.514;19.218;2022-07-06T07:22:46;23.13;64.96
68189;DHT22;55008;47.514;19.218;2022-07-06T07:25:17;23.14;63.87
68189;DHT22;55008;47.514;19.218;2022-07-06T07:27:48;23.27;63.79
68189;DHT22;55008;47.514;19.218;2022-07-06T07:30:18;23.27;63.40
68189;DHT22;55008;47.514;19.218;2022-07-06T07:32:52;23.20;63.58
68189;DHT22;55008;47.514;19.218;2022-07-06T07:35:24;23.31;62.77
68189;DHT22;55008;47.514;19.218;2022-07-06T07:37:54;23.34;62.67
68189;DHT22;55008;47.514;19.218;2022-07-06T07:40:26;23.50;63.31
68189;DHT22;55008;47.514;19.218;2022-07-06T07:42:57;23.55;62.54
68189;DHT22;55008;47.514;19.218;2022-07-06T07:45:33;23.71;62.05
68189;DHT22;55008;47.514;19.218;2022-07-06T07:48:03;23.62;61.81
68189;DHT22;55008;47.514;19.218;2022-07-06T07:50:42;23.66;60.94
68189;DHT22;55008;47.514;19.218;2022-07-06T07:53:23;23.88;62.54
68189;DHT22;55008;47.514;19.218;2022-07-06T07:55:56;24.10;61.59
68189;DHT22;55008;47.514;19.218;2022-07-06T07:58:27;23.99;60.26
68189;DHT22;55008;47.514;19.218;2022-07-06T08:00:57;24.09;60.25
68189;DHT22;55008;47.514;19.218;2022-07-06T08:03:28;24.31;60.04
68189;DHT22;55008;47.514;19.218;2022-07-06T08:06:00;24.43;60.24
68189;DHT22;55008;47.514;19.218;2022-07-06T08:08:36;24.53;59.97
68189;DHT22;55008;47.514;19.218;2022-07-06T08:11:06;24.91;59.34
68189;DHT22;55008;47.514;19.218;2022-07-06T08:13:45;24.96;58.70
68189;DHT22;55008;47.514;19.218;2022-07-06T08:16:23;24.95;58.27
68189;DHT22;55008;47.514;19.218;2022-07-06T08:18:52;25.05;57.33
68189;DHT22;55008;47.514;19.218;2022-07-06T08:21:20;24.95;56.47
68189;DHT22;55008;47.514;19.218;2022-07-06T08:23:55;25.15;56.01
68189;DHT22;55008;47.514;19.218;2022-07-06T08:26:31;25.08;56.07
68189;DHT22;55008;47.514;19.218;2022-07-06T08:29:04;25.22;56.51
68189;DHT22;55008;47.514;19.218;2022-07-06T08:31:34;25.33;56.78
68189;DHT22;55008;47.514;19.218;2022-07-06T08:34:23;25.22;56.22
68189;DHT22;55008;47.514;19.218;2022-07-06T08:37:16;24.95;57.92
68189;DHT22;55008;47.514;19.218;2022-07-06T08:39:53;24.79;58.49
68189;DHT22;55008;47.514;19.218;2022-07-06T08:42:25;25.33;57.30
68189;DHT22;55008;47.514;19.218;2022-07-06T08:45:01;25.33;57.12
68189;DHT22;55008;47.514;19.218;2022-07-06T08:47:36;25.63;55.94
68189;DHT22;55008;47.514;19.218;2022-07-06T08:50:11;25.92;52.70
68189;DHT22;55008;47.514;19.218;2022-07-06T08:52:44;25.23;53.43
68189;DHT22;55008;47.514;19.218;2022-07-06T08:55:14;25.71;53.96
68189;DHT22;55008;47.514;19.218;2022-07-06T08:57:45;25.82;52.32
68189;DHT22;55008;47.514;19.218;2022-07-06T09:00:19;25.87;52.97
68189;DHT22;55008;47.514;19.218;2022-07-06T09:02:51;26.17;52.71
68189;DHT22;55008;47.514;19.218;2022-07-06T09:05:26;25.98;52.55
68189;DHT22;55008;47.514;19.218;2022-07-06T09:07:59;25.73;51.27
68189;DHT22;55008;47.514;19.218;2022-07-06T09:10:32;25.78;51.75
68189;DHT22;55008;47.514;19.218;2022-07-06T09:13:06;25.81;48.98
68189;DHT22;55008;47.514;19.218;2022-07-06T09:15:36;26.40;49.23
68189;DHT22;55008;47.514;19.218;2022-07-06T09:18:12;26.04;49.47
68189;DHT22;55008;47.514;19.218;2022-07-06T09:20:46;26.33;49.06
68189;DHT22;55008;47.514;19.218;2022-07-06T09:23:18;26.50;47.34
68189;DHT22;55008;47.514;19.218;2022-07-06T09:25:49;27.08;47.26
68189;DHT22;55008;47.514;19.218;2022-07-06T09:28:21;27.42;45.86
68189;DHT22;55008;47.514;19.218;2022-07-06T09:30:57;27.61;45.65
68189;DHT22;55008;47.514;19.218;2022-07-06T09:33:55;26.77;49.18
68189;DHT22;55008;47.514;19.218;2022-07-06T09:36:45;26.42;49.45
68189;DHT22;55008;47.514;19.218;2022-07-06T09:39:20;27.08;49.51
68189;DHT22;55008;47.514;19.218;2022-07-06T09:41:56;26.87;49.04
68189;DHT22;55008;47.514;19.218;2022-07-06T09:44:31;26.40;50.41
68189;DHT22;55008;47.514;19.218;2022-07-06T09:47:05;26.67;49.77
68189;DHT22;55008;47.514;19.218;2022-07-06T09:49:35;26.79;49.17
68189;DHT22;55008;47.514;19.218;2022-07-06T09:52:07;27.00;48.53
68189;DHT22;55008;47.514;19.218;2022-07-06T09:54:37;27.45;48.69
68189;DHT22;55008;47.514;19.218;2022-07-06T09:57:07;27.82;47.68
68189;DHT22;55008;47.514;19.218;2022-07-06T09:59:40;28.23;46.87
68189;DHT22;55008;47.514;19.218;2022-07-06T10:02:14;27.70;45.59
68189;DHT22;55008;47.514;19.218;2022-07-06T10:04:45;27.07;48.10
68189;DHT22;55008;47.514;19.218;2022-07-06T10:07:17;27.69;46.76
68189;DHT22;55008;47.514;19.218;2022-07-06T10:09:50;27.73;46.33
68189;DHT22;55008;47.514;19.218;2022-07-06T10:12:22;27.72;45.44
68189;DHT22;55008;47.514;19.218;2022-07-06T10:15:01;27.83;45.47
68189;DHT22;55008;47.514;19.218;2022-07-06T10:17:32;28.25;45.72
68189;DHT22;55008;47.514;19.218;2022-07-06T10:20:02;28.25;45.53
68189;DHT22;55008;47.514;19.218;2022-07-06T10:22:39;27.90;45.41
68189;DHT22;55008;47.514;19.218;2022-07-06T10:25:13;28.43;43.55
68189;DHT22;55008;47.514;19.218;2022-07-06T10:27:48;28.88;44.14
68189;DHT22;55008;47.514;19.218;2022-07-06T10:30:22;28.87;42.66
68189;DHT22;55008;47.514;19.218;2022-07-06T10:32:56;28.28;40.06
68189;DHT22;55008;47.514;19.218;2022-07-06T10:35:29;28.91;40.06
68189;DHT22;55008;47.514;19.218;2022-07-06T10:38:07;28.83;39.89
68189;DHT22;55008;47.514;19.218;2022-07-06T10:40:41;28.57;40.87
68189;DHT22;55008;47.514;19.218;2022-07-06T10:43:50;28.95;41.50
68189;DHT22;55008;47.514;19.218;2022-07-06T10:46:30;29.03;41.49
68189;DHT22;55008;47.514;19.218;2022-07-06T10:49:12;28.68;41.31
68189;DHT22;55008;47.514;19.218;2022-07-06T10:52:07;28.67;40.52
68189;DHT22;55008;47.514;19.218;2022-07-06T10:54:41;28.50;41.31
68189;DHT22;55008;47.514;19.218;2022-07-06T10:57:13;28.25;40.84
68189;DHT22;55008;47.514;19.218;2022-07-06T11:00:02;28.65;40.78
68189;DHT22;55008;47.514;19.218;2022-07-06T11:02:40;29.02;38.72
68189;DHT22;55008;47.514;19.218;2022-07-06T11:05:12;29.23;37.75
68189;DHT22;55008;47.514;19.218;2022-07-06T11:08:22;29.16;38.70
68189;DHT22;55008;47.514;19.218;2022-07-06T11:10:53;30.01;38.31
68189;DHT22;55008;47.514;19.218;2022-07-06T11:13:27;29.73;38.56
68189;DHT22;55008;47.514;19.218;2022-07-06T11:16:02;29.12;39.47
68189;DHT22;55008;47.514;19.218;2022-07-06T11:18:42;29.34;38.22
68189;DHT22;55008;47.514;19.218;2022-07-06T11:21:18;28.89;36.36
68189;DHT22;55008;47.514;19.218;2022-07-06T11:23:49;28.75;38.10
68189;DHT22;55008;47.514;19.218;2022-07-06T11:26:23;28.80;37.86
68189;DHT22;55008;47.514;19.218;2022-07-06T11:28:55;29.02;37.46
68189;DHT22;55008;47.514;19.218;2022-07-06T11:31:25;29.34;37.60
68189;DHT22;55008;47.514;19.218;2022-07-06T11:33:58;29.40;35.18
68189;DHT22;55008;47.514;19.218;2022-07-06T11:36:31;29.46;35.43
68189;DHT22;55008;47.514;19.218;2022-07-06T11:39:05;29.30;36.09
68189;DHT22;55008;47.514;19.218;2022-07-06T11:41:35;29.78;35.58
68189;DHT22;55008;47.514;19.218;2022-07-06T11:44:06;30.29;35.70
68189;DHT22;55008;47.514;19.218;2022-07-06T11:46:35;30.21;34.89
68189;DHT22;55008;47.514;19.218;2022-07-06T11:49:07;29.98;34.57
68189;DHT22;55008;47.514;19.218;2022-07-06T11:51:37;28.80;35.20
68189;DHT22;55008;47.514;19.218;2022-07-06T11:54:09;28.61;35.93
68189;DHT22;55008;47.514;19.218;2022-07-06T11:56:46;29.05;35.62
68189;DHT22;55008;47.514;19.218;2022-07-06T11:59:22;29.54;34.79
68189;DHT22;55008;47.514;19.218;2022-07-06T12:01:59;30.04;34.51
68189;DHT22;55008;47.514;19.218;2022-07-06T12:04:31;29.91;34.14
68189;DHT22;55008;47.514;19.218;2022-07-06T12:07:04;29.82;34.46
68189;DHT22;55008;47.514;19.218;2022-07-06T12:09:33;30.15;33.03
68189;DHT22;55008;47.514;19.218;2022-07-06T12:12:04;30.02;32.94
68189;DHT22;55008;47.514;19.218;2022-07-06T12:14:35;29.36;34.44
68189;DHT22;55008;47.514;19.218;2022-07-06T12:17:07;29.00;34.30
68189;DHT22;55008;47.514;19.218;2022-07-06T12:19:38;29.63;33.62
68189;DHT22;55008;47.514;19.218;2022-07-06T12:22:09;30.15;32.80
68189;DHT22;55008;47.514;19.218;2022-07-06T12:24:44;29.94;32.60
68189;DHT22;55008;47.514;19.218;2022-07-06T12:27:19;30.09;32.01
68189;DHT22;55008;47.514;19.218;2022-07-06T12:29:50;30.46;30.75
68189;DHT22;55008;47.514;19.218;2022-07-06T12:32:21;30.02;30.36
68189;DHT22;55008;47.514;19.218;2022-07-06T12:35:06;30.32;30.00
68189;DHT22;55008;47.514;19.218;2022-07-06T12:37:54;30.18;30.39
68189;DHT22;55008;47.514;19.218;2022-07-06T12:40:27;31.25;29.23
68189;DHT22;55008;47.514;19.218;2022-07-06T12:42:57;31.04;28.82
68189;DHT22;55008;47.514;19.218;2022-07-06T12:45:28;30.67;28.81
68189;DHT22;55008;47.514;19.218;2022-07-06T12:47:59;30.44;29.10
68189;DHT22;55008;47.514;19.218;2022-07-06T12:50:33;30.19;30.14
68189;DHT22;55008;47.514;19.218;2022-07-06T12:53:05;30.00;30.55
68189;DHT22;55008;47.514;19.218;2022-07-06T12:55:35;29.56;31.43
68189;DHT22;55008;47.514;19.218;2022-07-06T12:58:06;29.46;31.18
68189;DHT22;55008;47.514;19.218;2022-07-06T13:00:47;29.06;31.12
68189;DHT22;55008;47.514;19.218;2022-07-06T13:03:17;29.19;30.91
68189;DHT22;55008;47.514;19.218;2022-07-06T13:05:51;29.54;30.72
68189;DHT22;55008;47.514;19.218;2022-07-06T13:08:22;29.25;30.11
68189;DHT22;55008;47.514;19.218;2022-07-06T13:10:54;29.10;30.83
68189;DHT22;55008;47.514;19.218;2022-07-06T13:13:24;29.16;31.99
68189;DHT22;55008;47.514;19.218;2022-07-06T13:15:56;29.30;31.62
68189;DHT22;55008;47.514;19.218;2022-07-06T13:18:28;29.15;31.54
68189;DHT22;55008;47.514;19.218;2022-07-06T13:21:00;29.34;30.61
68189;DHT22;55008;47.514;19.218;2022-07-06T13:23:31;29.46;31.42
68189;DHT22;55008;47.514;19.218;2022-07-06T13:26:01;29.70;30.94
68189;DHT22;55008;47.514;19.218;2022-07-06T13:28:32;29.40;31.56
68189;DHT22;55008;47.514;19.218;2022-07-06T13:31:02;29.46;31.82
68189;DHT22;55008;47.514;19.218;2022-07-06T13:33:40;29.73;31.98
68189;DHT22;55008;47.514;19.218;2022-07-06T13:36:13;29.60;31.59
68189;DHT22;55008;47.514;19.218;2022-07-06T13:38:45;29.73;30.34
68189;DHT22;55008;47.514;19.218;2022-07-06T13:41:17;30.22;31.37
68189;DHT22;55008;47.514;19.218;2022-07-06T13:43:48;29.77;30.98
68189;DHT22;55008;47.514;19.218;2022-07-06T13:46:19;29.97;31.36
68189;DHT22;55008;47.514;19.218;2022-07-06T13:48:49;30.32;30.48
68189;DHT22;55008;47.514;19.218;2022-07-06T13:51:24;30.31;31.75
68189;DHT22;55008;47.514;19.218;2022-07-06T13:53:54;30.08;31.73
68189;DHT22;55008;47.514;19.218;2022-07-06T13:56:26;29.20;33.28
68189;DHT22;55008;47.514;19.218;2022-07-06T13:58:56;28.96;34.75
68189;DHT22;55008;47.514;19.218;2022-07-06T14:01:24;28.92;35.16
68189;DHT22;55008;47.514;19.218;2022-07-06T14:04:00;28.52;35.25
68189;DHT22;55008;47.514;19.218;2022-07-06T14:06:33;28.62;35.47
68189;DHT22;55008;47.514;19.218;2022-07-06T14:09:03;28.59;35.26
68189;DHT22;55008;47.514;19.218;2022-07-06T14:11:36;28.59;35.26
68189;DHT22;55008;47.514;19.218;2022-07-06T14:14:10;28.68;34.50
68189;DHT22;55008;47.514;19.218;2022-07-06T14:16:40;28.41;33.83
68189;DHT22;55008;47.514;19.218;2022-07-06T14:19:11;28.55;34.19
68189;DHT22;55008;47.514;19.218;2022-07-06T14:21:51;28.23;34.98
68189;DHT22;55008;47.514;19.218;2022-07-06T14:24:21;28.23;35.87
68189;DHT22;55008;47.514;19.218;2022-07-06T14:27:01;28.18;35.15
68189;DHT22;55008;47.514;19.218;2022-07-06T14:29:33;28.24;35.86
68189;DHT22;55008;47.514;19.218;2022-07-06T14:32:02;28.36;35.51
68189;DHT22;55008;47.514;19.218;2022-07-06T14:34:33;28.23;36.00
68189;DHT22;55008;47.514;19.218;2022-07-06T14:37:04;28.31;34.57
68189;DHT22;55008;47.514;19.218;2022-07-06T14:39:33;28.58;34.84
68189;DHT22;55008;47.514;19.218;2022-07-06T14:42:09;28.47;33.57
68189;DHT22;55008;47.514;19.218;2022-07-06T14:44:39;28.44;33.66
68189;DHT22;55008;47.514;19.218;2022-07-06T14:47:09;28.43;33.21
68189;DHT22;55008;47.514;19.218;2022-07-06T14:49:45;28.43;33.92
68189;DHT22;55008;47.514;19.218;2022-07-06T14:52:16;28.47;33.57
68189;DHT22;55008;47.514;19.218;2022-07-06T14:54:46;28.47;33.94
68189;DHT22;55008;47.514;19.218;2022-07-06T14:57:15;28.59;33.48
68189;DHT22;55008;47.514;19.218;2022-07-06T14:59:45;28.67;34.31
68189;DHT22;55008;47.514;19.218;2022-07-06T15:02:14;28.74;34.60
68189;DHT22;55008;47.514;19.218;2022-07-06T15:04:43;28.57;32.63
68189;DHT22;55008;47.514;19.218;2022-07-06T15:07:16;28.45;32.38
68189;DHT22;55008;47.514;19.218;2022-07-06T15:09:58;28.44;32.61
68189;DHT22;55008;47.514;19.218;2022-07-06T15:12:31;28.37;32.48
68189;DHT22;55008;47.514;19.218;2022-07-06T15:14:59;28.33;32.09
68189;DHT22;55008;47.514;19.218;2022-07-06T15:17:29;28.37;32.99
68189;DHT22;55008;47.514;19.218;2022-07-06T15:19:59;28.27;31.58
68189;DHT22;55008;47.514;19.218;2022-07-06T15:22:29;28.43;31.34
68189;DHT22;55008;47.514;19.218;2022-07-06T15:24:58;28.27;31.75
68189;DHT22;55008;47.514;19.218;2022-07-06T15:27:28;28.13;32.27
68189;DHT22;55008;47.514;19.218;2022-07-06T15:29:58;28.21;31.91
68189;DHT22;55008;47.514;19.218;2022-07-06T15:32:47;27.89;32.75
68189;DHT22;55008;47.514;19.218;2022-07-06T15:35:20;27.79;32.64
68189;DHT22;55008;47.514;19.218;2022-07-06T15:37:51;27.55;32.91
68189;DHT22;55008;47.514;19.218;2022-07-06T15:40:23;27.54;33.49
68189;DHT22;55008;47.514;19.218;2022-07-06T15:42:54;27.61;32.09
68189;DHT22;55008;47.514;19.218;2022-07-06T15:45:25;27.37;31.97
68189;DHT22;55008;47.514;19.218;2022-07-06T15:48:00;27.25;32.39